Time;durP1;ratioP1;P1;durP2;ratioP2;P2;SDS_P1;SDS_P2;PMS_P1;PMS_P2;Temp;Humidity;BMP_temperature;BMP_pressure;BME280_temperature;BME280_humidity;BME280_pressure;Samples;Min_cycle;Max_cycle;Signal;HPM_P1;HPM_P2
2023/06/23 00:00:32;;;;;;;6.47;3.78;;;19.40;97.20;;;;;;5056164;28;20049;-50
2023/06/23 00:02:58;;;;;;;6.72;3.92;;;19.50;97.20;;;;;;5056285;28;20056;-51
2023/06/23 00:05:26;;;;;;;6.68;3.83;;;19.50;97.30;;;;;;5056225;28;20095;-51
2023/06/23 00:07:52;;;;;;;7.55;4.28;;;19.40;97.20;;;;;;5055877;28;20041;-48
2023/06/23 00:10:19;;;;;;;7.35;4.25;;;19.50;97.30;;;;;;5056300;28;20047;-50
2023/06/23 00:12:47;;;;;;;6.47;3.83;;;19.50;97.30;;;;;;5056180;28;20044;-48
2023/06/23 00:15:13;;;;;;;6.22;4.00;;;19.50;97.50;;;;;;5054639;28;20060;-47
2023/06/23 00:17:41;;;;;;;5.43;3.97;;;19.40;97.80;;;;;;5055656;28;20033;-48
2023/06/23 00:20:10;;;;;;;9.57;4.15;;;19.40;97.90;;;;;;5055540;28;20067;-52
2023/06/23 00:22:38;;;;;;;8.90;3.83;;;19.30;98.10;;;;;;5055652;28;20570;-50
2023/06/23 00:25:04;;;;;;;7.45;4.25;;;19.30;98.40;;;;;;5055441;28;20526;-51
2023/06/23 00:27:31;;;;;;;6.28;4.13;;;19.30;98.60;;;;;;5055349;28;20045;-52
2023/06/23 00:29:58;;;;;;;5.90;3.75;;;19.30;98.40;;;;;;5055391;28;20072;-52
2023/06/23 00:32:25;;;;;;;5.68;3.63;;;19.40;98.40;;;;;;5054297;28;20045;-53
2023/06/23 00:34:52;;;;;;;7.63;3.90;;;19.40;98.40;;;;;;5055844;28;20427;-54
2023/06/23 00:37:19;;;;;;;6.72;4.05;;;19.30;98.60;;;;;;5055665;28;20717;-53
2023/06/23 00:39:47;;;;;;;6.38;3.90;;;19.20;98.80;;;;;;5055446;28;20041;-48
2023/06/23 00:42:13;;;;;;;8.98;4.70;;;19.20;98.70;;;;;;5053800;28;20503;-49
2023/06/23 00:44:40;;;;;;;7.70;4.07;;;19.30;98.70;;;;;;5055478;28;20047;-49
2023/06/23 00:47:08;;;;;;;5.80;3.90;;;19.30;98.80;;;;;;5055422;28;20167;-49
2023/06/23 00:49:35;;;;;;;7.25;4.20;;;19.20;98.90;;;;;;5053921;28;20044;-48
2023/06/23 00:52:02;;;;;;;5.72;3.75;;;19.20;98.80;;;;;;5055354;28;20476;-48
2023/06/23 00:54:34;;;;;;;7.30;3.85;;;19.30;98.70;;;;;;5054382;28;20383;-51
2023/06/23 00:57:01;;;;;;;5.60;3.45;;;19.30;98.60;;;;;;5055328;28;20037;-49
2023/06/23 00:59:30;;;;;;;6.03;4.05;;;19.20;98.70;;;;;;5054287;28;20033;-52
2023/06/23 01:01:57;;;;;;;6.88;3.75;;;19.20;98.80;;;;;;5054014;28;20128;-47
2023/06/23 01:04:24;;;;;;;6.40;4.22;;;19.20;98.70;;;;;;5053444;28;20139;-49
2023/06/23 01:06:52;;;;;;;5.10;3.55;;;19.10;98.80;;;;;;5055168;28;20036;-47
2023/06/23 01:09:20;;;;;;;6.15;3.85;;;19.00;99.10;;;;;;5054613;28;20098;-47
2023/06/23 01:11:48;;;;;;;6.53;4.25;;;18.90;99.10;;;;;;5053558;28;20052;-49
2023/06/23 01:14:14;;;;;;;5.97;4.45;;;18.90;99.20;;;;;;5054511;28;20045;-50
2023/06/23 01:16:44;;;;;;;7.13;4.40;;;18.90;99.10;;;;;;5054695;28;20094;-49
2023/06/23 01:19:11;;;;;;;8.95;4.57;;;18.90;99.20;;;;;;5053405;28;20041;-49
2023/06/23 01:21:39;;;;;;;6.80;4.15;;;18.90;99.20;;;;;;5054645;28;20063;-49
2023/06/23 01:24:05;;;;;;;7.93;4.28;;;18.90;99.20;;;;;;5054582;28;20041;-49
2023/06/23 01:26:33;;;;;;;7.53;4.63;;;18.90;99.10;;;;;;5054546;28;20068;-49
2023/06/23 01:29:00;;;;;;;5.80;4.25;;;18.90;99.10;;;;;;5053035;28;20492;-47
2023/06/23 01:31:31;;;;;;;6.25;4.28;;;18.90;99.30;;;;;;5054713;28;20484;-50
2023/06/23 01:33:58;;;;;;;7.15;4.57;;;18.90;99.40;;;;;;5054894;28;20041;-50
2023/06/23 01:36:25;;;;;;;5.72;4.07;;;18.90;99.40;;;;;;5054762;28;20520;-54
2023/06/23 01:38:52;;;;;;;7.10;4.40;;;18.90;99.50;;;;;;5054062;28;20049;-47
2023/06/23 01:41:19;;;;;;;8.68;4.75;;;18.90;99.50;;;;;;5052868;28;20048;-49
2023/06/23 01:43:46;;;;;;;6.32;4.65;;;18.90;99.50;;;;;;5054315;28;20091;-49
2023/06/23 01:46:13;;;;;;;6.63;4.72;;;18.90;99.60;;;;;;5054026;28;20047;-49
2023/06/23 01:48:40;;;;;;;6.25;4.47;;;18.90;99.60;;;;;;5052516;28;20072;-51
2023/06/23 01:51:06;;;;;;;6.25;4.85;;;18.90;99.80;;;;;;5054516;28;20102;-49
2023/06/23 01:53:33;;;;;;;5.68;4.50;;;18.90;99.80;;;;;;5053839;28;20041;-49
2023/06/23 01:56:00;;;;;;;6.43;4.57;;;18.90;99.80;;;;;;5054025;28;20102;-50
2023/06/23 01:58:27;;;;;;;8.85;4.65;;;18.80;99.90;;;;;;5052961;28;20087;-46
2023/06/23 02:00:54;;;;;;;6.68;4.47;;;18.80;99.90;;;;;;5052288;28;20049;-49
2023/06/23 02:03:21;;;;;;;6.57;4.60;;;18.80;99.90;;;;;;5054476;28;20139;-47
2023/06/23 02:05:48;;;;;;;5.88;4.43;;;18.80;99.90;;;;;;5053709;28;20041;-49
2023/06/23 02:08:16;;;;;;;6.22;4.60;;;18.80;99.90;;;;;;5052649;28;20052;-47
2023/06/23 02:10:43;;;;;;;6.40;4.72;;;18.90;99.90;;;;;;5053503;28;20041;-49
2023/06/23 02:13:11;;;;;;;7.35;4.95;;;18.90;99.90;;;;;;5053378;28;20072;-50
2023/06/23 02:15:38;;;;;;;8.27;4.22;;;18.80;99.90;;;;;;5052253;28;20123;-52
2023/06/23 02:18:05;;;;;;;5.93;4.65;;;18.70;99.90;;;;;;5052887;28;20460;-48
2023/06/23 02:20:32;;;;;;;7.60;4.40;;;18.70;99.90;;;;;;5053496;28;20151;-52
2023/06/23 02:22:59;;;;;;;6.10;4.78;;;18.60;99.90;;;;;;5052620;28;20049;-50
2023/06/23 02:25:25;;;;;;;6.22;4.20;;;18.50;99.90;;;;;;5053488;28;20033;-50
2023/06/23 02:27:52;;;;;;;6.80;4.50;;;18.60;99.90;;;;;;5053961;28;20048;-49
2023/06/23 02:30:19;;;;;;;5.63;4.40;;;18.40;99.90;;;;;;5052047;28;20037;-46
2023/06/23 02:32:47;;;;;;;8.63;4.55;;;18.40;99.90;;;;;;5053559;28;20032;-49
2023/06/23 02:35:14;;;;;;;5.43;4.60;;;18.40;99.90;;;;;;5052253;28;20047;-48
2023/06/23 02:37:41;;;;;;;6.30;4.47;;;18.50;99.90;;;;;;5053670;28;20120;-49
2023/06/23 02:40:10;;;;;;;7.07;4.72;;;18.50;99.90;;;;;;5053207;28;20060;-51
2023/06/23 02:42:37;;;;;;;5.75;4.50;;;18.50;99.90;;;;;;5052326;28;20092;-51
2023/06/23 02:45:04;;;;;;;7.72;4.35;;;18.40;99.90;;;;;;5051858;28;20048;-51
2023/06/23 02:47:30;;;;;;;9.02;4.60;;;18.40;99.90;;;;;;5052455;28;20045;-49
2023/06/23 02:49:58;;;;;;;7.55;4.53;;;18.40;99.90;;;;;;5052042;28;20044;-53
2023/06/23 02:52:24;;;;;;;8.27;4.72;;;18.40;99.90;;;;;;5053092;28;20140;-47
2023/06/23 02:54:51;;;;;;;6.03;4.00;;;18.30;99.90;;;;;;5053071;28;20037;-52
2023/06/23 02:57:18;;;;;;;7.90;4.97;;;18.30;99.90;;;;;;5053623;28;20069;-49
2023/06/23 02:59:45;;;;;;;9.65;4.72;;;18.30;99.90;;;;;;5053190;28;20052;-49
2023/06/23 03:02:13;;;;;;;8.85;5.18;;;18.10;99.90;;;;;;5053302;28;20362;-51
2023/06/23 03:04:41;;;;;;;9.55;4.85;;;18.10;99.90;;;;;;5052159;28;20055;-53
2023/06/23 03:07:10;;;;;;;11.75;4.70;;;18.10;99.90;;;;;;5052034;28;20145;-51
2023/06/23 03:09:37;;;;;;;8.82;5.05;;;18.10;99.90;;;;;;5052303;28;20131;-51
2023/06/23 03:12:04;;;;;;;7.88;4.50;;;18.20;99.90;;;;;;5051980;28;20049;-50
2023/06/23 03:14:33;;;;;;;7.85;4.57;;;18.20;99.90;;;;;;5053303;28;20129;-52
2023/06/23 03:17:00;;;;;;;5.78;4.43;;;18.20;99.90;;;;;;5053027;28;20041;-50
2023/06/23 03:19:27;;;;;;;9.10;4.78;;;18.10;99.90;;;;;;5052961;28;20124;-51
2023/06/23 03:21:54;;;;;;;7.18;4.50;;;18.10;99.90;;;;;;5052996;28;20128;-51
2023/06/23 03:24:22;;;;;;;5.75;4.15;;;18.10;99.90;;;;;;5055449;28;20041;-47
2023/06/23 03:26:50;;;;;;;6.75;4.55;;;18.00;99.90;;;;;;5055764;28;20220;-51
2023/06/23 03:29:17;;;;;;;8.20;4.75;;;18.00;99.90;;;;;;5055441;28;20049;-50
2023/06/23 03:31:43;;;;;;;10.20;4.53;;;18.00;99.90;;;;;;5056689;28;20037;-49
2023/06/23 03:34:11;;;;;;;8.00;4.35;;;17.90;99.90;;;;;;5056772;28;20048;-52
2023/06/23 03:36:38;;;;;;;8.15;4.32;;;17.90;99.90;;;;;;5055377;28;20041;-45
2023/06/23 03:39:04;;;;;;;7.72;4.80;;;17.80;99.90;;;;;;5056585;28;20037;-50
2023/06/23 03:41:32;;;;;;;6.97;4.95;;;17.80;99.90;;;;;;5057020;28;20076;-48
2023/06/23 03:43:59;;;;;;;9.40;4.63;;;17.70;99.90;;;;;;5056438;28;20061;-50
2023/06/23 03:46:26;;;;;;;9.70;5.40;;;17.70;99.90;;;;;;5056665;28;20045;-47
2023/06/23 03:48:54;;;;;;;6.32;4.53;;;17.70;99.90;;;;;;5056473;28;20049;-47
2023/06/23 03:51:20;;;;;;;5.90;4.32;;;17.70;99.90;;;;;;5056860;28;20052;-49
2023/06/23 03:53:47;;;;;;;6.15;4.47;;;17.60;99.90;;;;;;5056193;28;20373;-51
2023/06/23 03:56:14;;;;;;;9.05;4.72;;;17.60;99.90;;;;;;5056306;28;20048;-46
2023/06/23 03:58:41;;;;;;;7.35;4.68;;;17.60;99.90;;;;;;5056864;28;20431;-47
2023/06/23 04:01:08;;;;;;;7.60;4.85;;;17.50;99.90;;;;;;5056089;28;20053;-48
2023/06/23 04:03:34;;;;;;;6.78;4.53;;;17.50;99.90;;;;;;5056264;28;20099;-50
2023/06/23 04:06:01;;;;;;;5.95;4.43;;;17.40;99.90;;;;;;5056596;28;20388;-52
2023/06/23 04:08:28;;;;;;;7.38;4.47;;;17.40;99.90;;;;;;5056687;28;20095;-50
2023/06/23 04:10:55;;;;;;;6.63;4.60;;;17.40;99.90;;;;;;5056310;28;20037;-49
2023/06/23 04:13:22;;;;;;;5.88;4.40;;;17.50;99.90;;;;;;5055780;28;20040;-50
2023/06/23 04:15:49;;;;;;;8.60;4.90;;;17.50;99.90;;;;;;5055809;28;20036;-49
2023/06/23 04:18:15;;;;;;;9.80;4.88;;;17.50;99.90;;;;;;5055914;28;20377;-47
2023/06/23 04:20:42;;;;;;;7.07;4.80;;;17.50;99.90;;;;;;5056008;28;20041;-48
2023/06/23 04:23:09;;;;;;;6.57;4.50;;;17.50;99.90;;;;;;5054670;28;20033;-49
2023/06/23 04:25:36;;;;;;;5.25;4.47;;;17.60;99.90;;;;;;5055767;28;20128;-47
2023/06/23 04:28:03;;;;;;;6.47;4.35;;;17.60;99.90;;;;;;5056195;28;20045;-50
2023/06/23 04:30:30;;;;;;;7.25;4.90;;;17.60;99.90;;;;;;5055667;28;20059;-53
2023/06/23 04:32:56;;;;;;;7.35;4.40;;;17.50;99.90;;;;;;5054358;28;20098;-50
2023/06/23 04:35:23;;;;;;;6.57;4.95;;;17.50;99.90;;;;;;5054158;28;20099;-48
2023/06/23 04:37:53;;;;;;;7.72;4.47;;;17.50;99.90;;;;;;5056022;28;20091;-50
2023/06/23 04:40:20;;;;;;;4.72;3.88;;;17.70;99.90;;;;;;5055767;28;20357;-48
2023/06/23 04:42:47;;;;;;;7.22;4.45;;;17.80;99.90;;;;;;5055475;28;20112;-49
2023/06/23 04:45:14;;;;;;;9.57;4.70;;;17.90;99.90;;;;;;5055745;28;20047;-49
2023/06/23 04:47:41;;;;;;;5.80;4.10;;;18.00;99.90;;;;;;5055511;28;20041;-50
2023/06/23 04:50:07;;;;;;;6.15;4.43;;;18.10;99.90;;;;;;5055832;28;20072;-50
2023/06/23 04:52:34;;;;;;;7.13;4.30;;;18.20;99.90;;;;;;5055219;28;20571;-47
2023/06/23 04:55:01;;;;;;;6.43;4.40;;;18.30;99.90;;;;;;5055433;28;20047;-47
2023/06/23 04:57:28;;;;;;;5.72;4.25;;;18.40;99.90;;;;;;5055684;28;20041;-48
2023/06/23 04:59:54;;;;;;;7.40;3.75;;;18.50;99.90;;;;;;5055111;28;20099;-52
2023/06/23 05:02:21;;;;;;;7.10;4.50;;;18.50;99.90;;;;;;5055096;28;20040;-46
2023/06/23 05:04:48;;;;;;;5.90;4.45;;;18.60;99.90;;;;;;5055122;28;20408;-50
2023/06/23 05:07:15;;;;;;;5.75;3.90;;;18.80;99.90;;;;;;5055026;28;20523;-48
2023/06/23 05:09:42;;;;;;;7.97;4.50;;;18.90;99.90;;;;;;5054719;28;20040;-49
2023/06/23 05:12:09;;;;;;;6.43;3.92;;;19.00;99.90;;;;;;5055074;28;20048;-50
2023/06/23 05:14:36;;;;;;;4.75;3.88;;;19.10;99.90;;;;;;5055199;28;20044;-53
2023/06/23 05:17:02;;;;;;;6.32;3.78;;;19.10;99.90;;;;;;5055453;28;20079;-49
2023/06/23 05:19:30;;;;;;;6.00;3.97;;;19.10;99.90;;;;;;5055269;28;20369;-46
2023/06/23 05:21:57;;;;;;;5.22;3.90;;;19.30;99.90;;;;;;5055219;28;20039;-48
2023/06/23 05:24:25;;;;;;;6.00;4.30;;;19.30;99.90;;;;;;5055022;28;20048;-50
2023/06/23 05:26:52;;;;;;;5.95;4.60;;;19.30;99.90;;;;;;5054854;28;20049;-51
2023/06/23 05:29:19;;;;;;;6.47;4.30;;;19.40;99.90;;;;;;5055067;28;20037;-45
2023/06/23 05:31:45;;;;;;;4.78;3.65;;;19.50;99.90;;;;;;5054754;28;20120;-49
2023/06/23 05:34:12;;;;;;;6.85;4.00;;;19.60;99.90;;;;;;5054238;28;20106;-45
2023/06/23 05:36:39;;;;;;;5.22;3.60;;;19.70;99.90;;;;;;5054695;28;20403;-46
2023/06/23 05:39:06;;;;;;;4.53;3.88;;;19.70;99.90;;;;;;5054967;28;20060;-46
2023/06/23 05:41:33;;;;;;;5.60;4.28;;;19.70;99.90;;;;;;5054648;28;20041;-48
2023/06/23 05:44:00;;;;;;;6.43;4.28;;;19.80;99.90;;;;;;5054796;28;20472;-48
2023/06/23 05:46:28;;;;;;;6.07;4.25;;;19.70;99.90;;;;;;5053940;28;20037;-45
2023/06/23 05:48:55;;;;;;;6.05;4.43;;;19.80;99.90;;;;;;5054031;28;20048;-47
2023/06/23 05:51:22;;;;;;;6.75;4.40;;;19.90;99.90;;;;;;5054219;28;20033;-48
2023/06/23 05:53:49;;;;;;;7.20;4.40;;;19.90;99.90;;;;;;5053347;28;20029;-47
2023/06/23 05:56:16;;;;;;;5.03;4.00;;;20.00;99.90;;;;;;5054758;28;20120;-49
2023/06/23 05:58:43;;;;;;;6.75;4.57;;;20.10;99.90;;;;;;5054034;28;20040;-51
2023/06/23 06:01:09;;;;;;;7.70;4.90;;;20.20;99.90;;;;;;5053784;28;20049;-47
2023/06/23 06:03:37;;;;;;;4.90;4.13;;;20.30;99.90;;;;;;5053813;28;20506;-52
2023/06/23 06:06:04;;;;;;;8.43;4.50;;;20.40;99.90;;;;;;5054307;28;20052;-47
2023/06/23 06:08:31;;;;;;;7.93;4.57;;;20.70;99.90;;;;;;5054144;28;20103;-46
2023/06/23 06:10:57;;;;;;;9.38;4.90;;;20.70;99.90;;;;;;5053705;28;20481;-48
2023/06/23 06:13:24;;;;;;;5.90;4.43;;;20.80;99.90;;;;;;5036449;28;20047;-48
2023/06/23 06:15:51;;;;;;;6.82;4.60;;;20.90;99.90;;;;;;5053521;28;20056;-47
2023/06/23 06:18:18;;;;;;;6.97;4.95;;;21.00;99.90;;;;;;5054264;28;20041;-46
2023/06/23 06:20:45;;;;;;;5.75;4.53;;;21.10;99.90;;;;;;5052833;28;20075;-45
2023/06/23 06:23:12;;;;;;;7.70;4.75;;;21.20;99.90;;;;;;5053729;28;20396;-47
2023/06/23 06:25:51;;;;;;;7.18;4.90;;;21.20;99.90;;;;;;5054095;28;20052;-48
2023/06/23 06:28:17;;;;;;;6.78;5.25;;;21.20;99.90;;;;;;5053737;28;20399;-47
2023/06/23 06:30:45;;;;;;;8.00;5.20;;;21.20;99.80;;;;;;5052426;28;20443;-49
2023/06/23 06:33:14;;;;;;;6.90;5.80;;;21.20;99.80;;;;;;5053469;28;20037;-47
2023/06/23 06:35:41;;;;;;;8.05;5.35;;;21.20;99.80;;;;;;5053883;28;20120;-47
2023/06/23 06:38:08;;;;;;;8.32;6.05;;;21.20;99.70;;;;;;5053674;28;20488;-49
2023/06/23 06:40:34;;;;;;;8.18;5.47;;;21.20;99.80;;;;;;5053232;28;20037;-45
2023/06/23 06:43:01;;;;;;;7.30;5.35;;;21.30;99.60;;;;;;5053732;28;20095;-46
2023/06/23 06:45:28;;;;;;;9.35;5.32;;;21.40;99.50;;;;;;5054014;28;20041;-53
2023/06/23 06:47:59;;;;;;;5.95;4.63;;;21.50;99.60;;;;;;5052467;28;20395;-47
2023/06/23 06:50:26;;;;;;;7.55;4.28;;;21.50;99.50;;;;;;5052500;28;20095;-48
2023/06/23 06:52:53;;;;;;;5.80;4.20;;;21.50;98.90;;;;;;5053334;28;20087;-46
2023/06/23 06:55:20;;;;;;;7.13;4.60;;;21.60;98.90;;;;;;5053284;28;20361;-48
2023/06/23 06:57:47;;;;;;;6.68;4.30;;;21.60;98.40;;;;;;5053683;28;20052;-47
2023/06/23 07:00:14;;;;;;;5.60;3.97;;;21.60;98.30;;;;;;5057185;28;20049;-47
2023/06/23 07:02:41;;;;;;;7.05;4.68;;;21.70;98.40;;;;;;5057604;28;20128;-46
2023/06/23 07:05:08;;;;;;;5.20;3.83;;;21.70;98.40;;;;;;5057722;28;20068;-47
2023/06/23 07:07:34;;;;;;;7.78;4.60;;;21.80;98.50;;;;;;5057783;28;20056;-47
2023/06/23 07:10:01;;;;;;;8.10;4.45;;;21.90;98.60;;;;;;5057331;28;20057;-49
2023/06/23 07:12:28;;;;;;;6.38;4.13;;;21.90;97.90;;;;;;5055936;28;20049;-49
2023/06/23 07:14:55;;;;;;;8.00;4.10;;;21.90;98.30;;;;;;5056771;28;20396;-46
2023/06/23 07:17:22;;;;;;;7.53;3.67;;;22.00;97.90;;;;;;5057352;28;20052;-47
2023/06/23 07:19:49;;;;;;;5.00;3.40;;;22.20;96.90;;;;;;5057366;28;20033;-46
2023/06/23 07:22:16;;;;;;;5.82;4.20;;;22.30;96.50;;;;;;5056832;28;20068;-47
2023/06/23 07:24:43;;;;;;;9.15;4.00;;;22.40;95.90;;;;;;5056681;28;20052;-45
2023/06/23 07:27:09;;;;;;;8.25;5.32;;;22.50;95.70;;;;;;5057354;28;20075;-50
2023/06/23 07:29:36;;;;;;;9.52;6.60;;;22.50;95.40;;;;;;5056913;28;20045;-46
2023/06/23 07:32:03;;;;;;;9.32;5.32;;;22.60;95.20;;;;;;5056761;28;20076;-47
2023/06/23 07:34:30;;;;;;;6.97;4.35;;;22.70;95.10;;;;;;5056691;28;20095;-47
2023/06/23 07:36:57;;;;;;;7.28;4.10;;;22.80;94.00;;;;;;5057192;28;20041;-47
2023/06/23 07:39:24;;;;;;;8.35;4.80;;;22.90;93.10;;;;;;5056556;28;20495;-48
2023/06/23 07:41:51;;;;;;;7.15;4.45;;;22.90;93.50;;;;;;5056704;28;20443;-46
2023/06/23 07:44:18;;;;;;;7.15;3.92;;;23.00;93.80;;;;;;5056420;28;20095;-49
2023/06/23 07:46:45;;;;;;;5.95;3.55;;;22.90;93.10;;;;;;5056442;28;20033;-45
2023/06/23 07:49:12;;;;;;;5.13;2.75;;;22.80;92.50;;;;;;5056353;28;20045;-49
2023/06/23 07:51:39;;;;;;;3.80;2.75;;;22.80;93.00;;;;;;5056412;28;20053;-52
2023/06/23 07:54:06;;;;;;;4.05;2.92;;;22.70;92.60;;;;;;5056196;28;20495;-53
2023/06/23 07:56:33;;;;;;;6.47;2.63;;;22.70;92.60;;;;;;5055299;28;20506;-47
2023/06/23 07:59:00;;;;;;;4.45;2.83;;;22.70;92.80;;;;;;5055942;28;20400;-53
2023/06/23 08:01:27;;;;;;;3.92;2.58;;;22.70;93.00;;;;;;5055820;28;20063;-53
2023/06/23 08:03:53;;;;;;;8.05;2.90;;;22.70;92.70;;;;;;5054491;28;20045;-49
2023/06/23 08:06:23;;;;;;;5.20;2.95;;;22.80;93.10;;;;;;5055906;28;20049;-51
2023/06/23 08:08:50;;;;;;;5.38;2.63;;;22.90;93.20;;;;;;5055555;28;20045;-53
2023/06/23 08:11:17;;;;;;;3.97;2.88;;;22.90;93.20;;;;;;5055567;28;20052;-52
2023/06/23 08:13:44;;;;;;;4.97;2.88;;;23.00;93.40;;;;;;5055257;28;20201;-47
2023/06/23 08:16:10;;;;;;;6.28;3.05;;;23.00;93.50;;;;;;5055912;28;20037;-48
2023/06/23 08:18:37;;;;;;;4.93;3.30;;;23.10;93.80;;;;;;5055606;28;20492;-50
2023/06/23 08:21:04;;;;;;;6.70;3.30;;;23.10;93.70;;;;;;5055566;28;20071;-51
2023/06/23 08:23:31;;;;;;;8.18;3.78;;;23.20;94.30;;;;;;5055676;28;20439;-48
2023/06/23 08:26:03;;;;;;;5.82;3.60;;;23.30;93.90;;;;;;5055802;28;20102;-54
2023/06/23 08:28:30;;;;;;;7.35;3.53;;;23.30;94.20;;;;;;5055625;28;20116;-53
2023/06/23 08:30:57;;;;;;;6.10;3.70;;;23.30;94.10;;;;;;5055305;28;20044;-47
2023/06/23 08:33:24;;;;;;;6.88;3.95;;;23.30;94.50;;;;;;5055019;28;20102;-54
2023/06/23 08:35:51;;;;;;;5.45;3.95;;;23.40;94.40;;;;;;5054152;28;20123;-49
2023/06/23 08:38:18;;;;;;;4.88;3.40;;;23.40;94.70;;;;;;5055319;28;20037;-52
2023/06/23 08:40:48;;;;;;;6.90;3.72;;;23.50;94.80;;;;;;5053994;28;20049;-56
2023/06/23 08:43:15;;;;;;;5.05;3.65;;;23.50;94.60;;;;;;5055044;28;20499;-52
2023/06/23 08:45:41;;;;;;;5.97;3.67;;;23.60;95.00;;;;;;5054999;28;20045;-53
2023/06/23 08:48:11;;;;;;;8.70;3.88;;;23.60;94.60;;;;;;5053894;28;20080;-49
2023/06/23 08:50:38;;;;;;;4.32;3.40;;;23.60;95.00;;;;;;5054169;28;20159;-49
2023/06/23 08:53:05;;;;;;;6.75;3.90;;;23.80;94.70;;;;;;5054525;28;20127;-47
2023/06/23 08:55:32;;;;;;;6.03;4.40;;;23.90;94.60;;;;;;5055025;28;20120;-46
2023/06/23 08:58:00;;;;;;;6.30;4.13;;;24.00;94.20;;;;;;5055134;28;20522;-49
2023/06/23 09:00:27;;;;;;;5.57;4.20;;;24.00;94.90;;;;;;5054948;28;20503;-46
2023/06/23 09:02:54;;;;;;;6.25;4.00;;;24.10;95.00;;;;;;5055044;28;20464;-49
2023/06/23 09:05:21;;;;;;;5.70;4.20;;;24.20;95.00;;;;;;5053931;28;20381;-50
2023/06/23 09:07:48;;;;;;;7.13;4.47;;;24.20;94.90;;;;;;5055224;28;20041;-47
2023/06/23 09:10:15;;;;;;;7.13;4.25;;;24.20;94.70;;;;;;5054888;28;20048;-51
2023/06/23 09:12:41;;;;;;;5.63;4.30;;;24.30;94.90;;;;;;5054780;28;20056;-48
2023/06/23 09:15:08;;;;;;;6.22;4.60;;;24.30;94.50;;;;;;5054488;28;20502;-49
2023/06/23 09:17:35;;;;;;;5.38;4.20;;;24.40;94.80;;;;;;5053513;28;20473;-52
2023/06/23 09:20:03;;;;;;;5.65;4.00;;;24.50;94.80;;;;;;5053452;28;20048;-47
2023/06/23 09:22:30;;;;;;;6.18;3.97;;;24.50;94.30;;;;;;5052840;28;20037;-52
2023/06/23 09:24:57;;;;;;;5.10;4.10;;;24.50;94.20;;;;;;5053393;28;20128;-52
2023/06/23 09:27:24;;;;;;;5.38;3.92;;;24.40;93.90;;;;;;5054597;28;20418;-54
2023/06/23 09:29:51;;;;;;;5.57;3.75;;;24.40;93.70;;;;;;5054835;28;20036;-53
2023/06/23 09:32:18;;;;;;;6.72;3.67;;;24.30;93.30;;;;;;5053093;28;20041;-52
2023/06/23 09:34:45;;;;;;;5.15;3.78;;;24.40;94.00;;;;;;5054387;28;20472;-54
2023/06/23 09:37:12;;;;;;;4.10;3.33;;;24.60;93.80;;;;;;5054843;28;20353;-50
2023/06/23 09:39:39;;;;;;;7.30;4.00;;;24.70;92.80;;;;;;5054257;28;20076;-50
2023/06/23 09:42:05;;;;;;;6.05;4.18;;;24.80;93.10;;;;;;5054744;28;20040;-50
2023/06/23 09:44:33;;;;;;;6.00;4.03;;;24.80;92.50;;;;;;5054584;28;20037;-49
2023/06/23 09:47:00;;;;;;;7.38;4.18;;;24.70;92.60;;;;;;5054429;28;20055;-50
2023/06/23 09:49:27;;;;;;;7.05;3.50;;;24.80;92.90;;;;;;5054460;28;20043;-48
2023/06/23 09:51:54;;;;;;;5.22;3.28;;;24.90;91.70;;;;;;5052810;28;20041;-48
2023/06/23 09:54:20;;;;;;;4.45;3.35;;;25.00;91.90;;;;;;5054482;28;20091;-49
2023/06/23 09:56:47;;;;;;;7.03;3.58;;;25.10;92.30;;;;;;5054545;28;20460;-46
2023/06/23 09:59:14;;;;;;;4.93;3.55;;;25.20;92.00;;;;;;5053918;28;20033;-47
2023/06/23 10:01:41;;;;;;;5.47;3.30;;;25.30;91.90;;;;;;5053877;28;20476;-49
2023/06/23 10:04:08;;;;;;;4.65;3.40;;;25.40;91.80;;;;;;5053816;28;20040;-48
2023/06/23 10:06:36;;;;;;;4.40;3.13;;;25.60;92.10;;;;;;5052912;28;20132;-48
2023/06/23 10:09:04;;;;;;;3.85;3.30;;;25.60;91.10;;;;;;5053803;28;20056;-55
2023/06/23 10:11:31;;;;;;;5.78;2.90;;;25.60;90.80;;;;;;5053726;28;20045;-50
2023/06/23 10:13:58;;;;;;;5.57;3.15;;;25.60;90.60;;;;;;5053610;28;20044;-54
2023/06/23 10:16:25;;;;;;;4.55;2.80;;;25.60;90.40;;;;;;5052163;28;20391;-52
2023/06/23 10:18:52;;;;;;;5.07;2.83;;;25.60;90.60;;;;;;5053889;28;20033;-49
2023/06/23 10:21:18;;;;;;;6.53;3.40;;;25.60;90.10;;;;;;5054266;28;20116;-53
2023/06/23 10:23:45;;;;;;;5.93;3.17;;;25.70;90.60;;;;;;5053369;28;20408;-48
2023/06/23 10:26:12;;;;;;;5.55;3.03;;;25.80;89.80;;;;;;5052476;28;20045;-53
2023/06/23 10:28:43;;;;;;;3.60;2.72;;;26.00;90.30;;;;;;5052375;28;20049;-53
2023/06/23 10:31:10;;;;;;;3.20;2.47;;;26.10;88.20;;;;;;5052331;28;20045;-53
2023/06/23 10:33:40;;;;;;;5.93;2.85;;;26.10;88.10;;;;;;5052749;28;20464;-54
2023/06/23 10:36:06;;;;;;;5.03;2.92;;;26.10;89.10;;;;;;5053294;28;20073;-50
2023/06/23 10:38:33;;;;;;;4.30;3.00;;;26.20;87.90;;;;;;5036265;28;20040;-54
2023/06/23 10:41:00;;;;;;;8.77;2.63;;;26.20;88.70;;;;;;5053434;28;20132;-51
2023/06/23 10:43:27;;;;;;;3.83;2.70;;;26.30;89.10;;;;;;5052509;28;20043;-52
2023/06/23 10:45:54;;;;;;;3.50;2.92;;;26.40;89.20;;;;;;5052784;28;20041;-51
2023/06/23 10:48:21;;;;;;;3.75;2.70;;;26.40;88.30;;;;;;5053245;28;20037;-50
2023/06/23 10:50:48;;;;;;;4.50;2.90;;;26.40;88.10;;;;;;5053979;28;20040;-50
2023/06/23 10:53:15;;;;;;;5.20;2.70;;;26.40;88.40;;;;;;5053645;28;20534;-53
2023/06/23 10:55:42;;;;;;;3.10;2.65;;;26.50;88.50;;;;;;5053995;28;20033;-53
2023/06/23 10:58:28;;;;;;;4.88;2.78;;;26.60;86.90;;;;;;5053656;28;20041;-53
2023/06/23 11:00:55;;;;;;;3.13;2.58;;;26.80;86.40;;;;;;5051839;28;20048;-51
2023/06/23 11:03:22;;;;;;;3.20;2.38;;;26.70;85.30;;;;;;5053675;28;20041;-52
2023/06/23 11:05:49;;;;;;;3.67;2.53;;;26.70;85.60;;;;;;5053104;28;20061;-51
2023/06/23 11:08:16;;;;;;;5.50;2.67;;;26.70;84.60;;;;;;5052025;28;20069;-50
2023/06/23 11:10:43;;;;;;;3.35;2.42;;;26.70;85.20;;;;;;5053776;28;20476;-47
2023/06/23 11:13:09;;;;;;;5.60;2.78;;;26.80;84.30;;;;;;5051895;28;20045;-52
2023/06/23 11:15:37;;;;;;;5.43;3.10;;;26.70;86.10;;;;;;5053030;28;20037;-49
2023/06/23 11:18:08;;;;;;;4.63;2.80;;;26.80;85.90;;;;;;5052639;28;20042;-51
2023/06/23 11:20:35;;;;;;;4.72;2.90;;;26.80;85.50;;;;;;5053588;28;20480;-52
2023/06/23 11:23:02;;;;;;;4.15;2.80;;;26.80;85.40;;;;;;5053059;28;20485;-52
2023/06/23 11:25:29;;;;;;;4.50;2.80;;;26.60;84.70;;;;;;5053637;28;20531;-50
2023/06/23 11:27:56;;;;;;;4.50;3.20;;;26.50;86.70;;;;;;5051964;28;20034;-50
2023/06/23 11:30:23;;;;;;;4.50;2.90;;;26.60;86.60;;;;;;5053354;28;20049;-52
2023/06/23 11:32:50;;;;;;;5.35;3.33;;;26.70;86.30;;;;;;5051545;28;20041;-55
2023/06/23 11:35:17;;;;;;;27.58;13.95;;;26.90;86.30;;;;;;5053184;28;20045;-49
2023/06/23 11:37:43;;;;;;;4.35;3.10;;;26.90;85.80;;;;;;5052952;28;20041;-52
2023/06/23 11:40:11;;;;;;;3.80;2.60;;;26.90;85.90;;;;;;5051890;28;20109;-53
2023/06/23 11:42:37;;;;;;;7.65;3.00;;;27.00;83.70;;;;;;5052931;28;20045;-52
2023/06/23 11:45:04;;;;;;;4.57;2.25;;;26.90;84.80;;;;;;5055330;28;20527;-55
2023/06/23 11:47:32;;;;;;;5.50;2.10;;;27.00;84.70;;;;;;5056638;28;20478;-49
2023/06/23 11:50:00;;;;;;;3.15;2.20;;;26.90;80.10;;;;;;5056683;28;20047;-50
2023/06/23 11:52:27;;;;;;;5.03;2.50;;;26.80;82.20;;;;;;5056504;28;20098;-50
2023/06/23 11:54:54;;;;;;;4.40;2.45;;;26.80;83.20;;;;;;5056773;28;20049;-49
2023/06/23 11:57:21;;;;;;;3.88;2.70;;;26.90;84.50;;;;;;5056175;28;20515;-52
2023/06/23 11:59:48;;;;;;;3.72;2.50;;;26.90;83.10;;;;;;5056223;28;20057;-49
2023/06/23 12:02:15;;;;;;;9.57;3.05;;;26.70;82.60;;;;;;5056419;28;20041;-53
2023/06/23 12:04:42;;;;;;;3.92;2.90;;;26.60;83.00;;;;;;5056125;28;20037;-53
2023/06/23 12:07:10;;;;;;;5.55;2.88;;;26.50;83.20;;;;;;5056469;28;20064;-50
2023/06/23 12:09:37;;;;;;;4.10;2.72;;;26.50;85.00;;;;;;5055865;28;20045;-50
2023/06/23 12:12:04;;;;;;;3.33;2.63;;;26.50;85.30;;;;;;5056516;28;20476;-52
2023/06/23 12:14:35;;;;;;;5.05;2.70;;;26.50;84.90;;;;;;5056292;28;20036;-55
2023/06/23 12:17:01;;;;;;;3.78;2.78;;;26.50;84.40;;;;;;5056131;28;20476;-55
2023/06/23 12:19:28;;;;;;;4.53;2.90;;;26.60;85.20;;;;;;5056236;28;20099;-54
2023/06/23 12:21:55;;;;;;;4.78;2.80;;;26.60;85.20;;;;;;5054937;28;20037;-54
2023/06/23 12:24:22;;;;;;;3.10;2.50;;;26.60;84.10;;;;;;5056278;28;20483;-50
2023/06/23 12:26:49;;;;;;;3.15;2.50;;;26.60;83.20;;;;;;5055830;28;20087;-53
2023/06/23 12:29:17;;;;;;;3.97;2.60;;;26.70;82.80;;;;;;5037720;28;20140;-50
2023/06/23 12:31:44;;;;;;;3.92;2.17;;;26.60;83.10;;;;;;5055667;28;20045;-53
2023/06/23 12:34:14;;;;;;;2.95;1.98;;;26.60;80.80;;;;;;5055701;28;20049;-55
2023/06/23 12:36:41;;;;;;;2.13;1.45;;;26.40;77.80;;;;;;5056026;28;20037;-47
2023/06/23 12:39:08;;;;;;;3.10;2.08;;;26.30;77.10;;;;;;5054857;28;20060;-54
2023/06/23 12:41:34;;;;;;;2.60;1.63;;;26.20;76.40;;;;;;5056146;28;20037;-48
2023/06/23 12:44:03;;;;;;;2.67;1.55;;;26.20;77.10;;;;;;5055369;28;20037;-51